<?xml version="1.0" encoding="UTF-8" standalone="no" ?>
<gpx xmlns="http://www.topografix.com/GPX/1/1" xmlns:xsi="http://www.w3.org/2001/XMLSchema-instance" xsi:schemaLocation="http://www.topografix.com/GPX/1/1 http://www.topografix.com/GPX/1/1/gpx.xsd" version="1.1" creator="VisuGPX - https://www.visugpx.com">
  <metadata>
    <name>Trail BTT</name>
    <desc><![CDATA[Tracé du bruéjouls tassou trail
le 25 juin 2016]]></desc>
  </metadata>
  <trk>
    <name><![CDATA[--Clairvaux-d'Aveyron-- OR-5662122:V20_1]]></name>
    <trkseg>
      <trkpt lat="44.41425" lon="2.42062">
        <ele>354</ele>
        <time>2016-02-23T23:21:53Z</time>
      </trkpt>
      <trkpt lat="44.41352" lon="2.42044">
        <ele>359</ele>
        <time>2016-02-23T23:23:53Z</time>
      </trkpt>
      <trkpt lat="44.41257" lon="2.42031">
        <ele>356</ele>
        <time>2016-02-23T23:25:53Z</time>
      </trkpt>
      <trkpt lat="44.41216" lon="2.42069">
        <ele>358</ele>
        <time>2016-02-23T23:27:53Z</time>
      </trkpt>
      <trkpt lat="44.41168" lon="2.42106">
        <ele>363</ele>
        <time>2016-02-23T23:29:53Z</time>
      </trkpt>
      <trkpt lat="44.41119" lon="2.42132">
        <ele>365</ele>
        <time>2016-02-23T23:31:53Z</time>
      </trkpt>
      <trkpt lat="44.41041" lon="2.42144">
        <ele>367</ele>
        <time>2016-02-23T23:33:53Z</time>
      </trkpt>
      <trkpt lat="44.4098" lon="2.42151">
        <ele>372</ele>
        <time>2016-02-23T23:35:53Z</time>
      </trkpt>
      <trkpt lat="44.40934" lon="2.42164">
        <ele>379</ele>
        <time>2016-02-23T23:37:53Z</time>
      </trkpt>
      <trkpt lat="44.40857" lon="2.422">
        <ele>387</ele>
        <time>2016-02-23T23:39:53Z</time>
      </trkpt>
      <trkpt lat="44.40842" lon="2.42325">
        <ele>386</ele>
        <time>2016-02-23T23:41:53Z</time>
      </trkpt>
      <trkpt lat="44.40811" lon="2.42374">
        <ele>385</ele>
        <time>2016-02-23T23:43:53Z</time>
      </trkpt>
      <trkpt lat="44.40776" lon="2.42468">
        <ele>386</ele>
        <time>2016-02-23T23:45:53Z</time>
      </trkpt>
      <trkpt lat="44.40779" lon="2.42544">
        <ele>387</ele>
        <time>2016-02-23T23:47:53Z</time>
      </trkpt>
      <trkpt lat="44.40777" lon="2.42571">
        <ele>387</ele>
        <time>2016-02-23T23:49:53Z</time>
      </trkpt>
      <trkpt lat="44.40779" lon="2.42614">
        <ele>388</ele>
        <time>2016-02-23T23:51:53Z</time>
      </trkpt>
      <trkpt lat="44.40776" lon="2.42651">
        <ele>390</ele>
        <time>2016-02-23T23:53:53Z</time>
      </trkpt>
      <trkpt lat="44.40753" lon="2.4267">
        <ele>391</ele>
        <time>2016-02-23T23:55:53Z</time>
      </trkpt>
      <trkpt lat="44.40724" lon="2.427">
        <ele>393</ele>
        <time>2016-02-23T23:57:53Z</time>
      </trkpt>
      <trkpt lat="44.40676" lon="2.42698">
        <ele>391</ele>
        <time>2016-02-23T23:59:53Z</time>
      </trkpt>
      <trkpt lat="44.40652" lon="2.427">
        <ele>392</ele>
        <time>2016-02-24T00:01:53Z</time>
      </trkpt>
      <trkpt lat="44.40622" lon="2.42722">
        <ele>395</ele>
        <time>2016-02-24T00:03:53Z</time>
      </trkpt>
      <trkpt lat="44.40567" lon="2.4272">
        <ele>398</ele>
        <time>2016-02-24T00:05:53Z</time>
      </trkpt>
      <trkpt lat="44.40535" lon="2.42735">
        <ele>401</ele>
        <time>2016-02-24T00:07:53Z</time>
      </trkpt>
      <trkpt lat="44.40497" lon="2.4278">
        <ele>407</ele>
        <time>2016-02-24T00:09:53Z</time>
      </trkpt>
      <trkpt lat="44.40463" lon="2.42788">
        <ele>407</ele>
        <time>2016-02-24T00:11:53Z</time>
      </trkpt>
      <trkpt lat="44.40414" lon="2.42833">
        <ele>413</ele>
        <time>2016-02-24T00:13:53Z</time>
      </trkpt>
      <trkpt lat="44.40374" lon="2.42838">
        <ele>413</ele>
        <time>2016-02-24T00:15:53Z</time>
      </trkpt>
      <trkpt lat="44.40343" lon="2.42808">
        <ele>409</ele>
        <time>2016-02-24T00:17:53Z</time>
      </trkpt>
      <trkpt lat="44.40336" lon="2.42767">
        <ele>403</ele>
        <time>2016-02-24T00:19:53Z</time>
      </trkpt>
      <trkpt lat="44.40322" lon="2.42726">
        <ele>396</ele>
        <time>2016-02-24T00:21:53Z</time>
      </trkpt>
      <trkpt lat="44.4029" lon="2.42713">
        <ele>392</ele>
        <time>2016-02-24T00:23:53Z</time>
      </trkpt>
      <trkpt lat="44.40268" lon="2.42726">
        <ele>391</ele>
        <time>2016-02-24T00:25:53Z</time>
      </trkpt>
      <trkpt lat="44.40242" lon="2.4275">
        <ele>392</ele>
        <time>2016-02-24T00:27:53Z</time>
      </trkpt>
      <trkpt lat="44.40198" lon="2.42777">
        <ele>393</ele>
        <time>2016-02-24T00:29:53Z</time>
      </trkpt>
      <trkpt lat="44.40169" lon="2.4281">
        <ele>396</ele>
        <time>2016-02-24T00:31:53Z</time>
      </trkpt>
      <trkpt lat="44.40149" lon="2.42814">
        <ele>396</ele>
        <time>2016-02-24T00:33:53Z</time>
      </trkpt>
      <trkpt lat="44.40126" lon="2.42782">
        <ele>389</ele>
        <time>2016-02-24T00:35:53Z</time>
      </trkpt>
      <trkpt lat="44.40071" lon="2.42775">
        <ele>384</ele>
        <time>2016-02-24T00:37:53Z</time>
      </trkpt>
      <trkpt lat="44.40037" lon="2.42784">
        <ele>381</ele>
        <time>2016-02-24T00:39:53Z</time>
      </trkpt>
      <trkpt lat="44.40051" lon="2.42745">
        <ele>376</ele>
        <time>2016-02-24T00:41:53Z</time>
      </trkpt>
      <trkpt lat="44.40078" lon="2.42709">
        <ele>373</ele>
        <time>2016-02-24T00:43:53Z</time>
      </trkpt>
      <trkpt lat="44.40097" lon="2.42677">
        <ele>368</ele>
        <time>2016-02-24T00:45:53Z</time>
      </trkpt>
      <trkpt lat="44.4008" lon="2.42638">
        <ele>365</ele>
        <time>2016-02-24T00:47:53Z</time>
      </trkpt>
      <trkpt lat="44.40071" lon="2.42589">
        <ele>364</ele>
        <time>2016-02-24T00:49:53Z</time>
      </trkpt>
      <trkpt lat="44.40071" lon="2.42544">
        <ele>365</ele>
        <time>2016-02-24T00:51:53Z</time>
      </trkpt>
      <trkpt lat="44.40046" lon="2.42486">
        <ele>368</ele>
        <time>2016-02-24T00:53:53Z</time>
      </trkpt>
      <trkpt lat="44.40009" lon="2.42443">
        <ele>371</ele>
        <time>2016-02-24T00:55:53Z</time>
      </trkpt>
      <trkpt lat="44.39804" lon="2.42576">
        <ele>379</ele>
        <time>2016-02-24T00:57:53Z</time>
      </trkpt>
      <trkpt lat="44.39802" lon="2.42606">
        <ele>377</ele>
        <time>2016-02-24T00:59:53Z</time>
      </trkpt>
      <trkpt lat="44.3979" lon="2.42636">
        <ele>377</ele>
        <time>2016-02-24T01:01:53Z</time>
      </trkpt>
      <trkpt lat="44.39787" lon="2.42674">
        <ele>375</ele>
        <time>2016-02-24T01:03:53Z</time>
      </trkpt>
      <trkpt lat="44.39792" lon="2.42717">
        <ele>372</ele>
        <time>2016-02-24T01:05:53Z</time>
      </trkpt>
      <trkpt lat="44.39796" lon="2.42752">
        <ele>370</ele>
        <time>2016-02-24T01:07:53Z</time>
      </trkpt>
      <trkpt lat="44.39798" lon="2.42795">
        <ele>373</ele>
        <time>2016-02-24T01:09:53Z</time>
      </trkpt>
      <trkpt lat="44.39755" lon="2.42842">
        <ele>374</ele>
        <time>2016-02-24T01:11:53Z</time>
      </trkpt>
      <trkpt lat="44.39706" lon="2.42868">
        <ele>377</ele>
        <time>2016-02-24T01:13:53Z</time>
      </trkpt>
      <trkpt lat="44.39655" lon="2.42893">
        <ele>380</ele>
        <time>2016-02-24T01:15:53Z</time>
      </trkpt>
      <trkpt lat="44.39677" lon="2.42956">
        <ele>389</ele>
        <time>2016-02-24T01:17:53Z</time>
      </trkpt>
      <trkpt lat="44.39689" lon="2.43009">
        <ele>395</ele>
        <time>2016-02-24T01:19:53Z</time>
      </trkpt>
      <trkpt lat="44.3966" lon="2.43091">
        <ele>400</ele>
        <time>2016-02-24T01:21:53Z</time>
      </trkpt>
      <trkpt lat="44.39655" lon="2.43166">
        <ele>409</ele>
        <time>2016-02-24T01:23:53Z</time>
      </trkpt>
      <trkpt lat="44.39641" lon="2.43204">
        <ele>414</ele>
        <time>2016-02-24T01:25:53Z</time>
      </trkpt>
      <trkpt lat="44.39575" lon="2.43224">
        <ele>429</ele>
        <time>2016-02-24T01:27:53Z</time>
      </trkpt>
      <trkpt lat="44.39534" lon="2.43265">
        <ele>441</ele>
        <time>2016-02-24T01:29:53Z</time>
      </trkpt>
      <trkpt lat="44.39494" lon="2.43301">
        <ele>451</ele>
        <time>2016-02-24T01:31:53Z</time>
      </trkpt>
      <trkpt lat="44.39442" lon="2.43316">
        <ele>459</ele>
        <time>2016-02-24T01:33:53Z</time>
      </trkpt>
      <trkpt lat="44.39399" lon="2.43284">
        <ele>455</ele>
        <time>2016-02-24T01:35:53Z</time>
      </trkpt>
      <trkpt lat="44.39371" lon="2.43267">
        <ele>452</ele>
        <time>2016-02-24T01:37:53Z</time>
      </trkpt>
      <trkpt lat="44.39315" lon="2.4326">
        <ele>447</ele>
        <time>2016-02-24T01:39:53Z</time>
      </trkpt>
      <trkpt lat="44.39276" lon="2.43239">
        <ele>435</ele>
        <time>2016-02-24T01:41:53Z</time>
      </trkpt>
      <trkpt lat="44.3924" lon="2.43217">
        <ele>425</ele>
        <time>2016-02-24T01:43:53Z</time>
      </trkpt>
      <trkpt lat="44.39164" lon="2.43215">
        <ele>419</ele>
        <time>2016-02-24T01:45:53Z</time>
      </trkpt>
      <trkpt lat="44.3912" lon="2.43217">
        <ele>415</ele>
        <time>2016-02-24T01:47:53Z</time>
      </trkpt>
      <trkpt lat="44.39062" lon="2.43215">
        <ele>407</ele>
        <time>2016-02-24T01:49:53Z</time>
      </trkpt>
      <trkpt lat="44.39016" lon="2.43241">
        <ele>402</ele>
        <time>2016-02-24T01:51:53Z</time>
      </trkpt>
      <trkpt lat="44.38988" lon="2.43243">
        <ele>400</ele>
        <time>2016-02-24T01:53:53Z</time>
      </trkpt>
      <trkpt lat="44.38974" lon="2.43306">
        <ele>402</ele>
        <time>2016-02-24T01:55:53Z</time>
      </trkpt>
      <trkpt lat="44.38986" lon="2.43338">
        <ele>405</ele>
        <time>2016-02-24T01:57:53Z</time>
      </trkpt>
      <trkpt lat="44.38994" lon="2.43385">
        <ele>413</ele>
        <time>2016-02-24T01:59:53Z</time>
      </trkpt>
      <trkpt lat="44.38996" lon="2.43447">
        <ele>422</ele>
        <time>2016-02-24T02:01:53Z</time>
      </trkpt>
      <trkpt lat="44.38969" lon="2.4352">
        <ele>428</ele>
        <time>2016-02-24T02:03:53Z</time>
      </trkpt>
      <trkpt lat="44.3895" lon="2.43589">
        <ele>437</ele>
        <time>2016-02-24T02:05:53Z</time>
      </trkpt>
      <trkpt lat="44.38937" lon="2.4363">
        <ele>438</ele>
        <time>2016-02-24T02:07:53Z</time>
      </trkpt>
      <trkpt lat="44.38945" lon="2.43705">
        <ele>446</ele>
        <time>2016-02-24T02:09:53Z</time>
      </trkpt>
      <trkpt lat="44.38959" lon="2.43743">
        <ele>453</ele>
        <time>2016-02-24T02:11:53Z</time>
      </trkpt>
      <trkpt lat="44.38973" lon="2.43705">
        <ele>455</ele>
        <time>2016-02-24T02:13:53Z</time>
      </trkpt>
      <trkpt lat="44.38997" lon="2.4367">
        <ele>460</ele>
        <time>2016-02-24T02:15:53Z</time>
      </trkpt>
      <trkpt lat="44.39023" lon="2.43703">
        <ele>467</ele>
        <time>2016-02-24T02:17:53Z</time>
      </trkpt>
      <trkpt lat="44.39038" lon="2.43735">
        <ele>472</ele>
        <time>2016-02-24T02:19:53Z</time>
      </trkpt>
      <trkpt lat="44.39065" lon="2.43754">
        <ele>478</ele>
        <time>2016-02-24T02:21:53Z</time>
      </trkpt>
      <trkpt lat="44.39083" lon="2.43801">
        <ele>481</ele>
        <time>2016-02-24T02:23:53Z</time>
      </trkpt>
      <trkpt lat="44.39115" lon="2.4378">
        <ele>486</ele>
        <time>2016-02-24T02:25:53Z</time>
      </trkpt>
      <trkpt lat="44.39138" lon="2.43788">
        <ele>490</ele>
        <time>2016-02-24T02:27:53Z</time>
      </trkpt>
      <trkpt lat="44.39167" lon="2.4378">
        <ele>495</ele>
        <time>2016-02-24T02:29:53Z</time>
      </trkpt>
      <trkpt lat="44.39194" lon="2.43848">
        <ele>507</ele>
        <time>2016-02-24T02:31:53Z</time>
      </trkpt>
      <trkpt lat="44.39217" lon="2.43874">
        <ele>516</ele>
        <time>2016-02-24T02:33:53Z</time>
      </trkpt>
      <trkpt lat="44.3924" lon="2.43919">
        <ele>527</ele>
        <time>2016-02-24T02:35:53Z</time>
      </trkpt>
      <trkpt lat="44.39266" lon="2.4399">
        <ele>533</ele>
        <time>2016-02-24T02:37:53Z</time>
      </trkpt>
      <trkpt lat="44.39278" lon="2.44039">
        <ele>536</ele>
        <time>2016-02-24T02:39:53Z</time>
      </trkpt>
      <trkpt lat="44.39286" lon="2.44101">
        <ele>536</ele>
        <time>2016-02-24T02:41:53Z</time>
      </trkpt>
      <trkpt lat="44.39307" lon="2.44144">
        <ele>541</ele>
        <time>2016-02-24T02:43:53Z</time>
      </trkpt>
      <trkpt lat="44.39324" lon="2.44194">
        <ele>545</ele>
        <time>2016-02-24T02:45:53Z</time>
      </trkpt>
      <trkpt lat="44.39341" lon="2.44234">
        <ele>549</ele>
        <time>2016-02-24T02:47:53Z</time>
      </trkpt>
      <trkpt lat="44.39321" lon="2.44121">
        <ele>547</ele>
        <time>2016-02-24T02:49:53Z</time>
      </trkpt>
      <trkpt lat="44.39322" lon="2.44026">
        <ele>547</ele>
        <time>2016-02-24T02:51:53Z</time>
      </trkpt>
      <trkpt lat="44.39322" lon="2.43986">
        <ele>544</ele>
        <time>2016-02-24T02:53:53Z</time>
      </trkpt>
      <trkpt lat="44.39309" lon="2.43923">
        <ele>537</ele>
        <time>2016-02-24T02:55:53Z</time>
      </trkpt>
      <trkpt lat="44.39281" lon="2.43805">
        <ele>524</ele>
        <time>2016-02-24T02:57:53Z</time>
      </trkpt>
      <trkpt lat="44.39292" lon="2.43767">
        <ele>520</ele>
        <time>2016-02-24T02:59:53Z</time>
      </trkpt>
      <trkpt lat="44.39305" lon="2.43713">
        <ele>514</ele>
        <time>2016-02-24T03:01:53Z</time>
      </trkpt>
      <trkpt lat="44.39312" lon="2.43672">
        <ele>509</ele>
        <time>2016-02-24T03:03:53Z</time>
      </trkpt>
      <trkpt lat="44.39313" lon="2.43614">
        <ele>508</ele>
        <time>2016-02-24T03:05:53Z</time>
      </trkpt>
      <trkpt lat="44.39321" lon="2.43599">
        <ele>507</ele>
        <time>2016-02-24T03:07:53Z</time>
      </trkpt>
      <trkpt lat="44.3933" lon="2.43629">
        <ele>509</ele>
        <time>2016-02-24T03:09:53Z</time>
      </trkpt>
      <trkpt lat="44.39345" lon="2.43662">
        <ele>508</ele>
        <time>2016-02-24T03:11:53Z</time>
      </trkpt>
      <trkpt lat="44.39373" lon="2.43672">
        <ele>504</ele>
        <time>2016-02-24T03:13:53Z</time>
      </trkpt>
      <trkpt lat="44.39404" lon="2.43681">
        <ele>500</ele>
        <time>2016-02-24T03:15:53Z</time>
      </trkpt>
      <trkpt lat="44.39424" lon="2.43717">
        <ele>498</ele>
        <time>2016-02-24T03:17:53Z</time>
      </trkpt>
      <trkpt lat="44.39436" lon="2.43758">
        <ele>497</ele>
        <time>2016-02-24T03:19:53Z</time>
      </trkpt>
      <trkpt lat="44.39443" lon="2.43822">
        <ele>500</ele>
        <time>2016-02-24T03:21:53Z</time>
      </trkpt>
      <trkpt lat="44.39451" lon="2.43852">
        <ele>499</ele>
        <time>2016-02-24T03:23:53Z</time>
      </trkpt>
      <trkpt lat="44.39483" lon="2.43893">
        <ele>493</ele>
        <time>2016-02-24T03:25:53Z</time>
      </trkpt>
      <trkpt lat="44.39499" lon="2.4387">
        <ele>487</ele>
        <time>2016-02-24T03:27:53Z</time>
      </trkpt>
      <trkpt lat="44.39502" lon="2.43829">
        <ele>483</ele>
        <time>2016-02-24T03:29:53Z</time>
      </trkpt>
      <trkpt lat="44.39503" lon="2.43777">
        <ele>480</ele>
        <time>2016-02-24T03:31:53Z</time>
      </trkpt>
      <trkpt lat="44.39512" lon="2.43722">
        <ele>475</ele>
        <time>2016-02-24T03:33:53Z</time>
      </trkpt>
      <trkpt lat="44.3952" lon="2.43662">
        <ele>470</ele>
        <time>2016-02-24T03:35:53Z</time>
      </trkpt>
      <trkpt lat="44.39522" lon="2.43631">
        <ele>467</ele>
        <time>2016-02-24T03:37:53Z</time>
      </trkpt>
      <trkpt lat="44.39506" lon="2.43604">
        <ele>469</ele>
        <time>2016-02-24T03:39:53Z</time>
      </trkpt>
      <trkpt lat="44.39477" lon="2.43584">
        <ele>474</ele>
        <time>2016-02-24T03:41:53Z</time>
      </trkpt>
      <trkpt lat="44.39468" lon="2.43554">
        <ele>473</ele>
        <time>2016-02-24T03:43:53Z</time>
      </trkpt>
      <trkpt lat="44.3948" lon="2.43513">
        <ele>466</ele>
        <time>2016-02-24T03:45:53Z</time>
      </trkpt>
      <trkpt lat="44.39519" lon="2.43481">
        <ele>454</ele>
        <time>2016-02-24T03:47:53Z</time>
      </trkpt>
      <trkpt lat="44.39542" lon="2.43503">
        <ele>448</ele>
        <time>2016-02-24T03:49:53Z</time>
      </trkpt>
      <trkpt lat="44.39569" lon="2.43505">
        <ele>441</ele>
        <time>2016-02-24T03:51:53Z</time>
      </trkpt>
      <trkpt lat="44.39601" lon="2.43486">
        <ele>432</ele>
        <time>2016-02-24T03:53:53Z</time>
      </trkpt>
      <trkpt lat="44.39623" lon="2.43509">
        <ele>428</ele>
        <time>2016-02-24T03:55:53Z</time>
      </trkpt>
      <trkpt lat="44.39652" lon="2.43513">
        <ele>423</ele>
        <time>2016-02-24T03:57:53Z</time>
      </trkpt>
      <trkpt lat="44.3968" lon="2.43498">
        <ele>418</ele>
        <time>2016-02-24T03:59:53Z</time>
      </trkpt>
      <trkpt lat="44.39706" lon="2.43492">
        <ele>418</ele>
        <time>2016-02-24T04:01:53Z</time>
      </trkpt>
      <trkpt lat="44.39733" lon="2.43471">
        <ele>417</ele>
        <time>2016-02-24T04:03:53Z</time>
      </trkpt>
      <trkpt lat="44.39758" lon="2.4343">
        <ele>414</ele>
        <time>2016-02-24T04:05:53Z</time>
      </trkpt>
      <trkpt lat="44.39779" lon="2.43372">
        <ele>412</ele>
        <time>2016-02-24T04:07:53Z</time>
      </trkpt>
      <trkpt lat="44.39792" lon="2.43314">
        <ele>410</ele>
        <time>2016-02-24T04:09:53Z</time>
      </trkpt>
      <trkpt lat="44.39801" lon="2.43269">
        <ele>411</ele>
        <time>2016-02-24T04:11:53Z</time>
      </trkpt>
      <trkpt lat="44.39793" lon="2.43226">
        <ele>409</ele>
        <time>2016-02-24T04:13:53Z</time>
      </trkpt>
      <trkpt lat="44.39775" lon="2.43198">
        <ele>405</ele>
        <time>2016-02-24T04:15:53Z</time>
      </trkpt>
      <trkpt lat="44.39744" lon="2.43177">
        <ele>400</ele>
        <time>2016-02-24T04:17:53Z</time>
      </trkpt>
      <trkpt lat="44.39727" lon="2.4314">
        <ele>400</ele>
        <time>2016-02-24T04:19:53Z</time>
      </trkpt>
      <trkpt lat="44.397" lon="2.43089">
        <ele>398</ele>
        <time>2016-02-24T04:21:53Z</time>
      </trkpt>
      <trkpt lat="44.3969" lon="2.43037">
        <ele>396</ele>
        <time>2016-02-24T04:23:53Z</time>
      </trkpt>
      <trkpt lat="44.39722" lon="2.43037">
        <ele>395</ele>
        <time>2016-02-24T04:25:53Z</time>
      </trkpt>
      <trkpt lat="44.39771" lon="2.4304">
        <ele>398</ele>
        <time>2016-02-24T04:27:53Z</time>
      </trkpt>
      <trkpt lat="44.39807" lon="2.43048">
        <ele>404</ele>
        <time>2016-02-24T04:29:53Z</time>
      </trkpt>
      <trkpt lat="44.39856" lon="2.43106">
        <ele>417</ele>
        <time>2016-02-24T04:31:53Z</time>
      </trkpt>
      <trkpt lat="44.3988" lon="2.4313">
        <ele>423</ele>
        <time>2016-02-24T04:33:53Z</time>
      </trkpt>
      <trkpt lat="44.39915" lon="2.43175">
        <ele>432</ele>
        <time>2016-02-24T04:35:53Z</time>
      </trkpt>
      <trkpt lat="44.3996" lon="2.4322">
        <ele>440</ele>
        <time>2016-02-24T04:37:53Z</time>
      </trkpt>
      <trkpt lat="44.40007" lon="2.43252">
        <ele>451</ele>
        <time>2016-02-24T04:39:53Z</time>
      </trkpt>
      <trkpt lat="44.40052" lon="2.43273">
        <ele>468</ele>
        <time>2016-02-24T04:41:53Z</time>
      </trkpt>
      <trkpt lat="44.40074" lon="2.43307">
        <ele>480</ele>
        <time>2016-02-24T04:43:53Z</time>
      </trkpt>
      <trkpt lat="44.40098" lon="2.4335">
        <ele>496</ele>
        <time>2016-02-24T04:45:53Z</time>
      </trkpt>
      <trkpt lat="44.40124" lon="2.43372">
        <ele>511</ele>
        <time>2016-02-24T04:47:53Z</time>
      </trkpt>
      <trkpt lat="44.40152" lon="2.43393">
        <ele>528</ele>
        <time>2016-02-24T04:49:53Z</time>
      </trkpt>
      <trkpt lat="44.40175" lon="2.43419">
        <ele>542</ele>
        <time>2016-02-24T04:51:53Z</time>
      </trkpt>
      <trkpt lat="44.40172" lon="2.43468">
        <ele>546</ele>
        <time>2016-02-24T04:53:53Z</time>
      </trkpt>
      <trkpt lat="44.4017" lon="2.43535">
        <ele>549</ele>
        <time>2016-02-24T04:55:53Z</time>
      </trkpt>
      <trkpt lat="44.40176" lon="2.43586">
        <ele>550</ele>
        <time>2016-02-24T04:57:53Z</time>
      </trkpt>
      <trkpt lat="44.40186" lon="2.43634">
        <ele>550</ele>
        <time>2016-02-24T04:59:53Z</time>
      </trkpt>
      <trkpt lat="44.40187" lon="2.43692">
        <ele>549</ele>
        <time>2016-02-24T05:01:53Z</time>
      </trkpt>
      <trkpt lat="44.40182" lon="2.43739">
        <ele>549</ele>
        <time>2016-02-24T05:03:53Z</time>
      </trkpt>
      <trkpt lat="44.4017" lon="2.43784">
        <ele>550</ele>
        <time>2016-02-24T05:05:53Z</time>
      </trkpt>
      <trkpt lat="44.40161" lon="2.4382">
        <ele>551</ele>
        <time>2016-02-24T05:07:53Z</time>
      </trkpt>
      <trkpt lat="44.40155" lon="2.43859">
        <ele>555</ele>
        <time>2016-02-24T05:09:53Z</time>
      </trkpt>
      <trkpt lat="44.40159" lon="2.43908">
        <ele>565</ele>
        <time>2016-02-24T05:11:53Z</time>
      </trkpt>
      <trkpt lat="44.40186" lon="2.43975">
        <ele>576</ele>
        <time>2016-02-24T05:13:53Z</time>
      </trkpt>
      <trkpt lat="44.40205" lon="2.44016">
        <ele>579</ele>
        <time>2016-02-24T05:15:53Z</time>
      </trkpt>
      <trkpt lat="44.40244" lon="2.44071">
        <ele>582</ele>
        <time>2016-02-24T05:17:53Z</time>
      </trkpt>
      <trkpt lat="44.4025" lon="2.44127">
        <ele>583</ele>
        <time>2016-02-24T05:19:53Z</time>
      </trkpt>
      <trkpt lat="44.40258" lon="2.44177">
        <ele>584</ele>
        <time>2016-02-24T05:21:53Z</time>
      </trkpt>
      <trkpt lat="44.40256" lon="2.4423">
        <ele>584</ele>
        <time>2016-02-24T05:23:53Z</time>
      </trkpt>
      <trkpt lat="44.40247" lon="2.44273">
        <ele>585</ele>
        <time>2016-02-24T05:25:53Z</time>
      </trkpt>
      <trkpt lat="44.40238" lon="2.44329">
        <ele>585</ele>
        <time>2016-02-24T05:27:53Z</time>
      </trkpt>
      <trkpt lat="44.40233" lon="2.44374">
        <ele>585</ele>
        <time>2016-02-24T05:29:53Z</time>
      </trkpt>
      <trkpt lat="44.40228" lon="2.44413">
        <ele>584</ele>
        <time>2016-02-24T05:31:53Z</time>
      </trkpt>
      <trkpt lat="44.40233" lon="2.44458">
        <ele>583</ele>
        <time>2016-02-24T05:33:53Z</time>
      </trkpt>
      <trkpt lat="44.40251" lon="2.44492">
        <ele>581</ele>
        <time>2016-02-24T05:35:53Z</time>
      </trkpt>
      <trkpt lat="44.40264" lon="2.44443">
        <ele>583</ele>
        <time>2016-02-24T05:37:53Z</time>
      </trkpt>
      <trkpt lat="44.40279" lon="2.44402">
        <ele>583</ele>
        <time>2016-02-24T05:39:53Z</time>
      </trkpt>
      <trkpt lat="44.40291" lon="2.44361">
        <ele>582</ele>
        <time>2016-02-24T05:41:53Z</time>
      </trkpt>
      <trkpt lat="44.40291" lon="2.44327">
        <ele>583</ele>
        <time>2016-02-24T05:43:53Z</time>
      </trkpt>
      <trkpt lat="44.40281" lon="2.44292">
        <ele>583</ele>
        <time>2016-02-24T05:45:53Z</time>
      </trkpt>
      <trkpt lat="44.40296" lon="2.44269">
        <ele>582</ele>
        <time>2016-02-24T05:47:53Z</time>
      </trkpt>
      <trkpt lat="44.40345" lon="2.44273">
        <ele>578</ele>
        <time>2016-02-24T05:49:53Z</time>
      </trkpt>
      <trkpt lat="44.40374" lon="2.44292">
        <ele>574</ele>
        <time>2016-02-24T05:51:53Z</time>
      </trkpt>
      <trkpt lat="44.40374" lon="2.44318">
        <ele>574</ele>
        <time>2016-02-24T05:53:53Z</time>
      </trkpt>
      <trkpt lat="44.40397" lon="2.44329">
        <ele>570</ele>
        <time>2016-02-24T05:55:53Z</time>
      </trkpt>
      <trkpt lat="44.40434" lon="2.4435">
        <ele>563</ele>
        <time>2016-02-24T05:57:53Z</time>
      </trkpt>
      <trkpt lat="44.40454" lon="2.4438">
        <ele>560</ele>
        <time>2016-02-24T05:59:53Z</time>
      </trkpt>
      <trkpt lat="44.40488" lon="2.44413">
        <ele>558</ele>
        <time>2016-02-24T06:01:53Z</time>
      </trkpt>
      <trkpt lat="44.40512" lon="2.4441">
        <ele>556</ele>
        <time>2016-02-24T06:03:53Z</time>
      </trkpt>
      <trkpt lat="44.40546" lon="2.4441">
        <ele>555</ele>
        <time>2016-02-24T06:05:53Z</time>
      </trkpt>
      <trkpt lat="44.40578" lon="2.44406">
        <ele>554</ele>
        <time>2016-02-24T06:07:53Z</time>
      </trkpt>
      <trkpt lat="44.40604" lon="2.44378">
        <ele>548</ele>
        <time>2016-02-24T06:09:53Z</time>
      </trkpt>
      <trkpt lat="44.40664" lon="2.4437">
        <ele>553</ele>
        <time>2016-02-24T06:11:53Z</time>
      </trkpt>
      <trkpt lat="44.40719" lon="2.44357">
        <ele>553</ele>
        <time>2016-02-24T06:13:53Z</time>
      </trkpt>
      <trkpt lat="44.40765" lon="2.44359">
        <ele>553</ele>
        <time>2016-02-24T06:15:53Z</time>
      </trkpt>
      <trkpt lat="44.40808" lon="2.44393">
        <ele>559</ele>
        <time>2016-02-24T06:17:53Z</time>
      </trkpt>
      <trkpt lat="44.40854" lon="2.44425">
        <ele>565</ele>
        <time>2016-02-24T06:19:53Z</time>
      </trkpt>
      <trkpt lat="44.40894" lon="2.4443">
        <ele>566</ele>
        <time>2016-02-24T06:21:53Z</time>
      </trkpt>
      <trkpt lat="44.40954" lon="2.44415">
        <ele>561</ele>
        <time>2016-02-24T06:23:53Z</time>
      </trkpt>
      <trkpt lat="44.40981" lon="2.4443">
        <ele>562</ele>
        <time>2016-02-24T06:25:53Z</time>
      </trkpt>
      <trkpt lat="44.41015" lon="2.44466">
        <ele>565</ele>
        <time>2016-02-24T06:27:53Z</time>
      </trkpt>
      <trkpt lat="44.4105" lon="2.44505">
        <ele>572</ele>
        <time>2016-02-24T06:29:53Z</time>
      </trkpt>
      <trkpt lat="44.41093" lon="2.44479">
        <ele>564</ele>
        <time>2016-02-24T06:31:53Z</time>
      </trkpt>
      <trkpt lat="44.41139" lon="2.44462">
        <ele>561</ele>
        <time>2016-02-24T06:33:53Z</time>
      </trkpt>
      <trkpt lat="44.41177" lon="2.44475">
        <ele>567</ele>
        <time>2016-02-24T06:35:53Z</time>
      </trkpt>
      <trkpt lat="44.41223" lon="2.4449">
        <ele>573</ele>
        <time>2016-02-24T06:37:53Z</time>
      </trkpt>
      <trkpt lat="44.41249" lon="2.44503">
        <ele>577</ele>
        <time>2016-02-24T06:39:53Z</time>
      </trkpt>
      <trkpt lat="44.41285" lon="2.44462">
        <ele>569</ele>
        <time>2016-02-24T06:41:53Z</time>
      </trkpt>
      <trkpt lat="44.41351" lon="2.44421">
        <ele>569</ele>
        <time>2016-02-24T06:43:53Z</time>
      </trkpt>
      <trkpt lat="44.41386" lon="2.44406">
        <ele>563</ele>
        <time>2016-02-24T06:45:53Z</time>
      </trkpt>
      <trkpt lat="44.41424" lon="2.44438">
        <ele>569</ele>
        <time>2016-02-24T06:47:53Z</time>
      </trkpt>
      <trkpt lat="44.4147" lon="2.44443">
        <ele>568</ele>
        <time>2016-02-24T06:49:53Z</time>
      </trkpt>
      <trkpt lat="44.4151" lon="2.44413">
        <ele>560</ele>
        <time>2016-02-24T06:51:53Z</time>
      </trkpt>
      <trkpt lat="44.4155" lon="2.44398">
        <ele>556</ele>
        <time>2016-02-24T06:53:53Z</time>
      </trkpt>
      <trkpt lat="44.41582" lon="2.44402">
        <ele>557</ele>
        <time>2016-02-24T06:55:53Z</time>
      </trkpt>
      <trkpt lat="44.41636" lon="2.44378">
        <ele>557</ele>
        <time>2016-02-24T06:57:53Z</time>
      </trkpt>
      <trkpt lat="44.41659" lon="2.44359">
        <ele>557</ele>
        <time>2016-02-24T06:59:53Z</time>
      </trkpt>
      <trkpt lat="44.41671" lon="2.44343">
        <ele>556</ele>
        <time>2016-02-24T07:01:53Z</time>
      </trkpt>
      <trkpt lat="44.41669" lon="2.44315">
        <ele>557</ele>
        <time>2016-02-24T07:03:53Z</time>
      </trkpt>
      <trkpt lat="44.41669" lon="2.44294">
        <ele>560</ele>
        <time>2016-02-24T07:05:53Z</time>
      </trkpt>
      <trkpt lat="44.41665" lon="2.44269">
        <ele>562</ele>
        <time>2016-02-24T07:07:53Z</time>
      </trkpt>
      <trkpt lat="44.41664" lon="2.44248">
        <ele>564</ele>
        <time>2016-02-24T07:09:53Z</time>
      </trkpt>
      <trkpt lat="44.41643" lon="2.44187">
        <ele>569</ele>
        <time>2016-02-24T07:11:53Z</time>
      </trkpt>
      <trkpt lat="44.41608" lon="2.44123">
        <ele>569</ele>
        <time>2016-02-24T07:13:53Z</time>
      </trkpt>
      <trkpt lat="44.41576" lon="2.44071">
        <ele>568</ele>
        <time>2016-02-24T07:15:53Z</time>
      </trkpt>
      <trkpt lat="44.41541" lon="2.44028">
        <ele>565</ele>
        <time>2016-02-24T07:17:53Z</time>
      </trkpt>
      <trkpt lat="44.41507" lon="2.43977">
        <ele>564</ele>
        <time>2016-02-24T07:19:53Z</time>
      </trkpt>
      <trkpt lat="44.41498" lon="2.43938">
        <ele>566</ele>
        <time>2016-02-24T07:21:53Z</time>
      </trkpt>
      <trkpt lat="44.41455" lon="2.43906">
        <ele>566</ele>
        <time>2016-02-24T07:23:53Z</time>
      </trkpt>
      <trkpt lat="44.41419" lon="2.43913">
        <ele>562</ele>
        <time>2016-02-24T07:25:53Z</time>
      </trkpt>
      <trkpt lat="44.41369" lon="2.43904">
        <ele>553</ele>
        <time>2016-02-24T07:27:53Z</time>
      </trkpt>
      <trkpt lat="44.41328" lon="2.43859">
        <ele>555</ele>
        <time>2016-02-24T07:29:53Z</time>
      </trkpt>
      <trkpt lat="44.41301" lon="2.43814">
        <ele>557</ele>
        <time>2016-02-24T07:31:53Z</time>
      </trkpt>
      <trkpt lat="44.4128" lon="2.43777">
        <ele>555</ele>
        <time>2016-02-24T07:33:53Z</time>
      </trkpt>
      <trkpt lat="44.41271" lon="2.43739">
        <ele>554</ele>
        <time>2016-02-24T07:35:53Z</time>
      </trkpt>
      <trkpt lat="44.41271" lon="2.43707">
        <ele>549</ele>
        <time>2016-02-24T07:37:53Z</time>
      </trkpt>
      <trkpt lat="44.41308" lon="2.43662">
        <ele>556</ele>
        <time>2016-02-24T07:39:53Z</time>
      </trkpt>
      <trkpt lat="44.41361" lon="2.4364">
        <ele>563</ele>
        <time>2016-02-24T07:41:53Z</time>
      </trkpt>
      <trkpt lat="44.41401" lon="2.43631">
        <ele>566</ele>
        <time>2016-02-24T07:43:53Z</time>
      </trkpt>
      <trkpt lat="44.41476" lon="2.43638">
        <ele>570</ele>
        <time>2016-02-24T07:45:53Z</time>
      </trkpt>
      <trkpt lat="44.41559" lon="2.43655">
        <ele>570</ele>
        <time>2016-02-24T07:47:53Z</time>
      </trkpt>
      <trkpt lat="44.41588" lon="2.43668">
        <ele>572</ele>
        <time>2016-02-24T07:49:53Z</time>
      </trkpt>
      <trkpt lat="44.41628" lon="2.43679">
        <ele>568</ele>
        <time>2016-02-24T07:51:53Z</time>
      </trkpt>
      <trkpt lat="44.41666" lon="2.43707">
        <ele>569</ele>
        <time>2016-02-24T07:53:53Z</time>
      </trkpt>
      <trkpt lat="44.417" lon="2.43728">
        <ele>573</ele>
        <time>2016-02-24T07:55:53Z</time>
      </trkpt>
      <trkpt lat="44.41721" lon="2.43747">
        <ele>576</ele>
        <time>2016-02-24T07:57:53Z</time>
      </trkpt>
      <trkpt lat="44.41738" lon="2.43799">
        <ele>581</ele>
        <time>2016-02-24T07:59:53Z</time>
      </trkpt>
      <trkpt lat="44.41772" lon="2.43883">
        <ele>587</ele>
        <time>2016-02-24T08:01:53Z</time>
      </trkpt>
      <trkpt lat="44.41792" lon="2.43915">
        <ele>589</ele>
        <time>2016-02-24T08:03:53Z</time>
      </trkpt>
      <trkpt lat="44.41925" lon="2.43835">
        <ele>594</ele>
        <time>2016-02-24T08:05:53Z</time>
      </trkpt>
      <trkpt lat="44.41925" lon="2.43799">
        <ele>592</ele>
        <time>2016-02-24T08:07:53Z</time>
      </trkpt>
      <trkpt lat="44.41999" lon="2.4376">
        <ele>596</ele>
        <time>2016-02-24T08:09:53Z</time>
      </trkpt>
      <trkpt lat="44.42045" lon="2.43741">
        <ele>597</ele>
        <time>2016-02-24T08:11:53Z</time>
      </trkpt>
      <trkpt lat="44.42102" lon="2.43724">
        <ele>596</ele>
        <time>2016-02-24T08:13:53Z</time>
      </trkpt>
      <trkpt lat="44.42146" lon="2.43657">
        <ele>593</ele>
        <time>2016-02-24T08:15:53Z</time>
      </trkpt>
      <trkpt lat="44.42174" lon="2.43554">
        <ele>590</ele>
        <time>2016-02-24T08:17:53Z</time>
      </trkpt>
      <trkpt lat="44.42193" lon="2.4349">
        <ele>591</ele>
        <time>2016-02-24T08:19:53Z</time>
      </trkpt>
      <trkpt lat="44.4223" lon="2.43466">
        <ele>593</ele>
        <time>2016-02-24T08:21:53Z</time>
      </trkpt>
      <trkpt lat="44.42293" lon="2.4349">
        <ele>590</ele>
        <time>2016-02-24T08:23:53Z</time>
      </trkpt>
      <trkpt lat="44.42338" lon="2.43509">
        <ele>587</ele>
        <time>2016-02-24T08:25:53Z</time>
      </trkpt>
      <trkpt lat="44.42382" lon="2.43535">
        <ele>582</ele>
        <time>2016-02-24T08:27:53Z</time>
      </trkpt>
      <trkpt lat="44.42379" lon="2.43492">
        <ele>580</ele>
        <time>2016-02-24T08:29:53Z</time>
      </trkpt>
      <trkpt lat="44.42361" lon="2.43443">
        <ele>582</ele>
        <time>2016-02-24T08:31:53Z</time>
      </trkpt>
      <trkpt lat="44.42331" lon="2.43325">
        <ele>592</ele>
        <time>2016-02-24T08:33:53Z</time>
      </trkpt>
      <trkpt lat="44.42319" lon="2.43292">
        <ele>590</ele>
        <time>2016-02-24T08:35:53Z</time>
      </trkpt>
      <trkpt lat="44.42296" lon="2.43202">
        <ele>586</ele>
        <time>2016-02-24T08:37:53Z</time>
      </trkpt>
      <trkpt lat="44.42279" lon="2.43099">
        <ele>580</ele>
        <time>2016-02-24T08:39:53Z</time>
      </trkpt>
      <trkpt lat="44.42278" lon="2.43029">
        <ele>571</ele>
        <time>2016-02-24T08:41:53Z</time>
      </trkpt>
      <trkpt lat="44.42272" lon="2.42992">
        <ele>567</ele>
        <time>2016-02-24T08:43:53Z</time>
      </trkpt>
      <trkpt lat="44.42264" lon="2.42947">
        <ele>559</ele>
        <time>2016-02-24T08:45:53Z</time>
      </trkpt>
      <trkpt lat="44.42287" lon="2.42964">
        <ele>555</ele>
        <time>2016-02-24T08:47:53Z</time>
      </trkpt>
      <trkpt lat="44.42305" lon="2.43007">
        <ele>558</ele>
        <time>2016-02-24T08:49:53Z</time>
      </trkpt>
      <trkpt lat="44.42327" lon="2.43074">
        <ele>561</ele>
        <time>2016-02-24T08:51:53Z</time>
      </trkpt>
      <trkpt lat="44.42338" lon="2.43125">
        <ele>564</ele>
        <time>2016-02-24T08:53:53Z</time>
      </trkpt>
      <trkpt lat="44.42357" lon="2.43185">
        <ele>557</ele>
        <time>2016-02-24T08:55:53Z</time>
      </trkpt>
      <trkpt lat="44.42396" lon="2.43265">
        <ele>540</ele>
        <time>2016-02-24T08:57:53Z</time>
      </trkpt>
      <trkpt lat="44.42419" lon="2.4328">
        <ele>526</ele>
        <time>2016-02-24T08:59:53Z</time>
      </trkpt>
      <trkpt lat="44.42437" lon="2.4328">
        <ele>515</ele>
        <time>2016-02-24T09:01:53Z</time>
      </trkpt>
      <trkpt lat="44.42462" lon="2.43318">
        <ele>506</ele>
        <time>2016-02-24T09:03:53Z</time>
      </trkpt>
      <trkpt lat="44.42489" lon="2.43378">
        <ele>501</ele>
        <time>2016-02-24T09:05:53Z</time>
      </trkpt>
      <trkpt lat="44.42518" lon="2.43436">
        <ele>498</ele>
        <time>2016-02-24T09:07:53Z</time>
      </trkpt>
      <trkpt lat="44.42563" lon="2.43513">
        <ele>498</ele>
        <time>2016-02-24T09:09:53Z</time>
      </trkpt>
      <trkpt lat="44.42615" lon="2.43578">
        <ele>506</ele>
        <time>2016-02-24T09:11:53Z</time>
      </trkpt>
      <trkpt lat="44.42649" lon="2.43614">
        <ele>517</ele>
        <time>2016-02-24T09:13:53Z</time>
      </trkpt>
      <trkpt lat="44.42688" lon="2.43629">
        <ele>521</ele>
        <time>2016-02-24T09:15:53Z</time>
      </trkpt>
      <trkpt lat="44.42722" lon="2.43636">
        <ele>524</ele>
        <time>2016-02-24T09:17:53Z</time>
      </trkpt>
      <trkpt lat="44.42748" lon="2.4364">
        <ele>525</ele>
        <time>2016-02-24T09:19:53Z</time>
      </trkpt>
      <trkpt lat="44.42757" lon="2.43674">
        <ele>539</ele>
        <time>2016-02-24T09:21:53Z</time>
      </trkpt>
      <trkpt lat="44.4275" lon="2.43713">
        <ele>552</ele>
        <time>2016-02-24T09:23:53Z</time>
      </trkpt>
      <trkpt lat="44.42765" lon="2.43754">
        <ele>573</ele>
        <time>2016-02-24T09:25:53Z</time>
      </trkpt>
      <trkpt lat="44.42788" lon="2.43801">
        <ele>592</ele>
        <time>2016-02-24T09:27:53Z</time>
      </trkpt>
      <trkpt lat="44.42808" lon="2.43825">
        <ele>601</ele>
        <time>2016-02-24T09:29:53Z</time>
      </trkpt>
      <trkpt lat="44.4284" lon="2.43758">
        <ele>591</ele>
        <time>2016-02-24T09:31:53Z</time>
      </trkpt>
      <trkpt lat="44.42859" lon="2.43715">
        <ele>589</ele>
        <time>2016-02-24T09:33:53Z</time>
      </trkpt>
      <trkpt lat="44.42868" lon="2.43674">
        <ele>586</ele>
        <time>2016-02-24T09:35:53Z</time>
      </trkpt>
      <trkpt lat="44.42874" lon="2.43627">
        <ele>584</ele>
        <time>2016-02-24T09:37:53Z</time>
      </trkpt>
      <trkpt lat="44.42869" lon="2.43595">
        <ele>579</ele>
        <time>2016-02-24T09:39:53Z</time>
      </trkpt>
      <trkpt lat="44.42865" lon="2.43522">
        <ele>571</ele>
        <time>2016-02-24T09:41:53Z</time>
      </trkpt>
      <trkpt lat="44.42898" lon="2.43402">
        <ele>574</ele>
        <time>2016-02-24T09:43:53Z</time>
      </trkpt>
      <trkpt lat="44.42921" lon="2.4338">
        <ele>582</ele>
        <time>2016-02-24T09:45:53Z</time>
      </trkpt>
      <trkpt lat="44.42946" lon="2.43325">
        <ele>581</ele>
        <time>2016-02-24T09:47:53Z</time>
      </trkpt>
      <trkpt lat="44.42955" lon="2.43295">
        <ele>578</ele>
        <time>2016-02-24T09:49:53Z</time>
      </trkpt>
      <trkpt lat="44.42955" lon="2.43258">
        <ele>569</ele>
        <time>2016-02-24T09:51:53Z</time>
      </trkpt>
      <trkpt lat="44.4297" lon="2.43177">
        <ele>561</ele>
        <time>2016-02-24T09:53:53Z</time>
      </trkpt>
      <trkpt lat="44.42992" lon="2.43104">
        <ele>555</ele>
        <time>2016-02-24T09:55:53Z</time>
      </trkpt>
      <trkpt lat="44.43006" lon="2.43041">
        <ele>547</ele>
        <time>2016-02-24T09:57:53Z</time>
      </trkpt>
      <trkpt lat="44.42998" lon="2.43009">
        <ele>538</ele>
        <time>2016-02-24T09:59:53Z</time>
      </trkpt>
      <trkpt lat="44.43039" lon="2.42906">
        <ele>529</ele>
        <time>2016-02-24T10:01:53Z</time>
      </trkpt>
      <trkpt lat="44.43045" lon="2.42857">
        <ele>520</ele>
        <time>2016-02-24T10:03:53Z</time>
      </trkpt>
      <trkpt lat="44.43056" lon="2.42816">
        <ele>514</ele>
        <time>2016-02-24T10:05:53Z</time>
      </trkpt>
      <trkpt lat="44.43075" lon="2.42754">
        <ele>510</ele>
        <time>2016-02-24T10:07:53Z</time>
      </trkpt>
      <trkpt lat="44.43082" lon="2.42711">
        <ele>506</ele>
        <time>2016-02-24T10:09:53Z</time>
      </trkpt>
      <trkpt lat="44.43088" lon="2.42638">
        <ele>501</ele>
        <time>2016-02-24T10:11:53Z</time>
      </trkpt>
      <trkpt lat="44.43096" lon="2.42595">
        <ele>499</ele>
        <time>2016-02-24T10:13:53Z</time>
      </trkpt>
      <trkpt lat="44.43091" lon="2.42561">
        <ele>503</ele>
        <time>2016-02-24T10:15:53Z</time>
      </trkpt>
      <trkpt lat="44.43068" lon="2.42533">
        <ele>508</ele>
        <time>2016-02-24T10:17:53Z</time>
      </trkpt>
      <trkpt lat="44.43044" lon="2.42522">
        <ele>506</ele>
        <time>2016-02-24T10:19:53Z</time>
      </trkpt>
      <trkpt lat="44.43019" lon="2.42488">
        <ele>506</ele>
        <time>2016-02-24T10:21:53Z</time>
      </trkpt>
      <trkpt lat="44.43007" lon="2.4246">
        <ele>505</ele>
        <time>2016-02-24T10:23:53Z</time>
      </trkpt>
      <trkpt lat="44.42992" lon="2.4243">
        <ele>502</ele>
        <time>2016-02-24T10:25:53Z</time>
      </trkpt>
      <trkpt lat="44.42981" lon="2.42402">
        <ele>496</ele>
        <time>2016-02-24T10:27:53Z</time>
      </trkpt>
      <trkpt lat="44.42963" lon="2.42389">
        <ele>486</ele>
        <time>2016-02-24T10:29:53Z</time>
      </trkpt>
      <trkpt lat="44.42941" lon="2.42365">
        <ele>475</ele>
        <time>2016-02-24T10:31:53Z</time>
      </trkpt>
      <trkpt lat="44.42952" lon="2.42338">
        <ele>476</ele>
        <time>2016-02-24T10:33:53Z</time>
      </trkpt>
      <trkpt lat="44.42918" lon="2.4234">
        <ele>465</ele>
        <time>2016-02-24T10:35:53Z</time>
      </trkpt>
      <trkpt lat="44.42894" lon="2.4235">
        <ele>462</ele>
        <time>2016-02-24T10:37:53Z</time>
      </trkpt>
      <trkpt lat="44.42868" lon="2.42357">
        <ele>457</ele>
        <time>2016-02-24T10:39:53Z</time>
      </trkpt>
      <trkpt lat="44.42836" lon="2.42355">
        <ele>452</ele>
        <time>2016-02-24T10:41:53Z</time>
      </trkpt>
      <trkpt lat="44.42819" lon="2.42352">
        <ele>448</ele>
        <time>2016-02-24T10:43:53Z</time>
      </trkpt>
      <trkpt lat="44.42803" lon="2.42326">
        <ele>443</ele>
        <time>2016-02-24T10:45:53Z</time>
      </trkpt>
      <trkpt lat="44.42788" lon="2.42361">
        <ele>438</ele>
        <time>2016-02-24T10:47:53Z</time>
      </trkpt>
      <trkpt lat="44.4277" lon="2.4238">
        <ele>430</ele>
        <time>2016-02-24T10:49:53Z</time>
      </trkpt>
      <trkpt lat="44.42767" lon="2.42415">
        <ele>426</ele>
        <time>2016-02-24T10:51:53Z</time>
      </trkpt>
      <trkpt lat="44.42751" lon="2.42441">
        <ele>416</ele>
        <time>2016-02-24T10:53:53Z</time>
      </trkpt>
      <trkpt lat="44.42728" lon="2.42458">
        <ele>406</ele>
        <time>2016-02-24T10:55:53Z</time>
      </trkpt>
      <trkpt lat="44.42715" lon="2.42426">
        <ele>406</ele>
        <time>2016-02-24T10:57:53Z</time>
      </trkpt>
      <trkpt lat="44.42695" lon="2.42391">
        <ele>403</ele>
        <time>2016-02-24T10:59:53Z</time>
      </trkpt>
      <trkpt lat="44.42673" lon="2.4237">
        <ele>397</ele>
        <time>2016-02-24T11:01:53Z</time>
      </trkpt>
      <trkpt lat="44.42636" lon="2.42365">
        <ele>387</ele>
        <time>2016-02-24T11:03:53Z</time>
      </trkpt>
      <trkpt lat="44.42606" lon="2.42365">
        <ele>379</ele>
        <time>2016-02-24T11:05:53Z</time>
      </trkpt>
      <trkpt lat="44.42593" lon="2.42338">
        <ele>376</ele>
        <time>2016-02-24T11:07:53Z</time>
      </trkpt>
      <trkpt lat="44.42577" lon="2.42353">
        <ele>373</ele>
        <time>2016-02-24T11:09:53Z</time>
      </trkpt>
      <trkpt lat="44.42554" lon="2.42353">
        <ele>374</ele>
        <time>2016-02-24T11:11:53Z</time>
      </trkpt>
      <trkpt lat="44.42524" lon="2.42316">
        <ele>373</ele>
        <time>2016-02-24T11:13:53Z</time>
      </trkpt>
      <trkpt lat="44.42511" lon="2.42269">
        <ele>372</ele>
        <time>2016-02-24T11:15:53Z</time>
      </trkpt>
      <trkpt lat="44.42503" lon="2.42226">
        <ele>371</ele>
        <time>2016-02-24T11:17:53Z</time>
      </trkpt>
      <trkpt lat="44.42466" lon="2.42194">
        <ele>372</ele>
        <time>2016-02-24T11:19:53Z</time>
      </trkpt>
      <trkpt lat="44.42428" lon="2.42179">
        <ele>373</ele>
        <time>2016-02-24T11:21:53Z</time>
      </trkpt>
      <trkpt lat="44.42391" lon="2.42157">
        <ele>374</ele>
        <time>2016-02-24T11:23:53Z</time>
      </trkpt>
      <trkpt lat="44.42347" lon="2.42153">
        <ele>377</ele>
        <time>2016-02-24T11:25:53Z</time>
      </trkpt>
      <trkpt lat="44.4229" lon="2.42181">
        <ele>381</ele>
        <time>2016-02-24T11:27:53Z</time>
      </trkpt>
      <trkpt lat="44.42247" lon="2.42209">
        <ele>384</ele>
        <time>2016-02-24T11:29:53Z</time>
      </trkpt>
      <trkpt lat="44.42215" lon="2.42252">
        <ele>385</ele>
        <time>2016-02-24T11:31:53Z</time>
      </trkpt>
      <trkpt lat="44.42181" lon="2.42224">
        <ele>379</ele>
        <time>2016-02-24T11:33:53Z</time>
      </trkpt>
      <trkpt lat="44.42146" lon="2.42205">
        <ele>377</ele>
        <time>2016-02-24T11:35:53Z</time>
      </trkpt>
      <trkpt lat="44.42118" lon="2.42213">
        <ele>377</ele>
        <time>2016-02-24T11:37:53Z</time>
      </trkpt>
      <trkpt lat="44.42088" lon="2.42256">
        <ele>379</ele>
        <time>2016-02-24T11:39:53Z</time>
      </trkpt>
      <trkpt lat="44.42062" lon="2.42269">
        <ele>381</ele>
        <time>2016-02-24T11:41:53Z</time>
      </trkpt>
      <trkpt lat="44.42022" lon="2.4226">
        <ele>381</ele>
        <time>2016-02-24T11:43:53Z</time>
      </trkpt>
      <trkpt lat="44.41984" lon="2.42258">
        <ele>380</ele>
        <time>2016-02-24T11:45:53Z</time>
      </trkpt>
      <trkpt lat="44.41956" lon="2.42278">
        <ele>379</ele>
        <time>2016-02-24T11:47:53Z</time>
      </trkpt>
      <trkpt lat="44.41911" lon="2.4231">
        <ele>379</ele>
        <time>2016-02-24T11:49:53Z</time>
      </trkpt>
      <trkpt lat="44.41873" lon="2.42316">
        <ele>377</ele>
        <time>2016-02-24T11:51:53Z</time>
      </trkpt>
      <trkpt lat="44.41841" lon="2.4231">
        <ele>376</ele>
        <time>2016-02-24T11:53:53Z</time>
      </trkpt>
      <trkpt lat="44.41812" lon="2.42301">
        <ele>374</ele>
        <time>2016-02-24T11:55:53Z</time>
      </trkpt>
      <trkpt lat="44.41783" lon="2.42351">
        <ele>375</ele>
        <time>2016-02-24T11:57:53Z</time>
      </trkpt>
      <trkpt lat="44.41729" lon="2.42434">
        <ele>375</ele>
        <time>2016-02-24T11:59:53Z</time>
      </trkpt>
      <trkpt lat="44.41686" lon="2.42462">
        <ele>375</ele>
        <time>2016-02-24T12:01:53Z</time>
      </trkpt>
      <trkpt lat="44.41645" lon="2.42475">
        <ele>375</ele>
        <time>2016-02-24T12:03:53Z</time>
      </trkpt>
      <trkpt lat="44.41594" lon="2.42468">
        <ele>374</ele>
        <time>2016-02-24T12:05:53Z</time>
      </trkpt>
      <trkpt lat="44.41562" lon="2.4249">
        <ele>375</ele>
        <time>2016-02-24T12:07:53Z</time>
      </trkpt>
      <trkpt lat="44.41561" lon="2.42526">
        <ele>376</ele>
        <time>2016-02-24T12:09:53Z</time>
      </trkpt>
      <trkpt lat="44.41565" lon="2.42578">
        <ele>378</ele>
        <time>2016-02-24T12:11:53Z</time>
      </trkpt>
      <trkpt lat="44.41559" lon="2.42604">
        <ele>378</ele>
        <time>2016-02-24T12:13:53Z</time>
      </trkpt>
      <trkpt lat="44.41515" lon="2.42627">
        <ele>377</ele>
        <time>2016-02-24T12:15:53Z</time>
      </trkpt>
      <trkpt lat="44.41528" lon="2.42681">
        <ele>380</ele>
        <time>2016-02-24T12:17:53Z</time>
      </trkpt>
      <trkpt lat="44.41568" lon="2.42717">
        <ele>383</ele>
        <time>2016-02-24T12:19:53Z</time>
      </trkpt>
      <trkpt lat="44.41634" lon="2.4276">
        <ele>389</ele>
        <time>2016-02-24T12:21:53Z</time>
      </trkpt>
      <trkpt lat="44.41709" lon="2.42788">
        <ele>397</ele>
        <time>2016-02-24T12:23:53Z</time>
      </trkpt>
      <trkpt lat="44.41703" lon="2.42835">
        <ele>399</ele>
        <time>2016-02-24T12:25:53Z</time>
      </trkpt>
      <trkpt lat="44.417" lon="2.42921">
        <ele>406</ele>
        <time>2016-02-24T12:27:53Z</time>
      </trkpt>
      <trkpt lat="44.41692" lon="2.42996">
        <ele>415</ele>
        <time>2016-02-24T12:29:53Z</time>
      </trkpt>
      <trkpt lat="44.41669" lon="2.43039">
        <ele>419</ele>
        <time>2016-02-24T12:31:53Z</time>
      </trkpt>
      <trkpt lat="44.41654" lon="2.43063">
        <ele>420</ele>
        <time>2016-02-24T12:33:53Z</time>
      </trkpt>
      <trkpt lat="44.41663" lon="2.43123">
        <ele>428</ele>
        <time>2016-02-24T12:35:53Z</time>
      </trkpt>
      <trkpt lat="44.41669" lon="2.43181">
        <ele>436</ele>
        <time>2016-02-24T12:37:53Z</time>
      </trkpt>
      <trkpt lat="44.41648" lon="2.43235">
        <ele>443</ele>
        <time>2016-02-24T12:39:53Z</time>
      </trkpt>
      <trkpt lat="44.41622" lon="2.43277">
        <ele>450</ele>
        <time>2016-02-24T12:41:53Z</time>
      </trkpt>
      <trkpt lat="44.41593" lon="2.43252">
        <ele>445</ele>
        <time>2016-02-24T12:43:53Z</time>
      </trkpt>
      <trkpt lat="44.41552" lon="2.4325">
        <ele>448</ele>
        <time>2016-02-24T12:45:53Z</time>
      </trkpt>
      <trkpt lat="44.4152" lon="2.4325">
        <ele>452</ele>
        <time>2016-02-24T12:47:53Z</time>
      </trkpt>
      <trkpt lat="44.41477" lon="2.43237">
        <ele>453</ele>
        <time>2016-02-24T12:49:53Z</time>
      </trkpt>
      <trkpt lat="44.41497" lon="2.43265">
        <ele>457</ele>
        <time>2016-02-24T12:51:53Z</time>
      </trkpt>
      <trkpt lat="44.41514" lon="2.4328">
        <ele>459</ele>
        <time>2016-02-24T12:53:53Z</time>
      </trkpt>
      <trkpt lat="44.41499" lon="2.43302">
        <ele>465</ele>
        <time>2016-02-24T12:55:53Z</time>
      </trkpt>
      <trkpt lat="44.41459" lon="2.43301">
        <ele>466</ele>
        <time>2016-02-24T12:57:53Z</time>
      </trkpt>
      <trkpt lat="44.41438" lon="2.43299">
        <ele>467</ele>
        <time>2016-02-24T12:59:53Z</time>
      </trkpt>
      <trkpt lat="44.41422" lon="2.43329">
        <ele>473</ele>
        <time>2016-02-24T13:01:53Z</time>
      </trkpt>
      <trkpt lat="44.414" lon="2.43353">
        <ele>476</ele>
        <time>2016-02-24T13:03:53Z</time>
      </trkpt>
      <trkpt lat="44.4139" lon="2.43372">
        <ele>479</ele>
        <time>2016-02-24T13:05:53Z</time>
      </trkpt>
      <trkpt lat="44.41378" lon="2.43387">
        <ele>481</ele>
        <time>2016-02-24T13:07:53Z</time>
      </trkpt>
      <trkpt lat="44.41377" lon="2.43338">
        <ele>470</ele>
        <time>2016-02-24T13:09:53Z</time>
      </trkpt>
      <trkpt lat="44.41374" lon="2.43297">
        <ele>462</ele>
        <time>2016-02-24T13:11:53Z</time>
      </trkpt>
      <trkpt lat="44.41351" lon="2.43284">
        <ele>458</ele>
        <time>2016-02-24T13:13:53Z</time>
      </trkpt>
      <trkpt lat="44.41332" lon="2.43256">
        <ele>452</ele>
        <time>2016-02-24T13:15:53Z</time>
      </trkpt>
      <trkpt lat="44.41318" lon="2.43228">
        <ele>446</ele>
        <time>2016-02-24T13:17:53Z</time>
      </trkpt>
      <trkpt lat="44.41298" lon="2.432">
        <ele>440</ele>
        <time>2016-02-24T13:19:53Z</time>
      </trkpt>
      <trkpt lat="44.41283" lon="2.43159">
        <ele>434</ele>
        <time>2016-02-24T13:21:53Z</time>
      </trkpt>
      <trkpt lat="44.41257" lon="2.43147">
        <ele>428</ele>
        <time>2016-02-24T13:23:53Z</time>
      </trkpt>
      <trkpt lat="44.41228" lon="2.43147">
        <ele>422</ele>
        <time>2016-02-24T13:25:53Z</time>
      </trkpt>
      <trkpt lat="44.41208" lon="2.43173">
        <ele>420</ele>
        <time>2016-02-24T13:27:53Z</time>
      </trkpt>
      <trkpt lat="44.41217" lon="2.43207">
        <ele>424</ele>
        <time>2016-02-24T13:29:53Z</time>
      </trkpt>
      <trkpt lat="44.41209" lon="2.43243">
        <ele>426</ele>
        <time>2016-02-24T13:31:53Z</time>
      </trkpt>
      <trkpt lat="44.41176" lon="2.43273">
        <ele>424</ele>
        <time>2016-02-24T13:33:53Z</time>
      </trkpt>
      <trkpt lat="44.41123" lon="2.43282">
        <ele>420</ele>
        <time>2016-02-24T13:35:53Z</time>
      </trkpt>
      <trkpt lat="44.41084" lon="2.43291">
        <ele>418</ele>
        <time>2016-02-24T13:37:53Z</time>
      </trkpt>
      <trkpt lat="44.41062" lon="2.4331">
        <ele>416</ele>
        <time>2016-02-24T13:39:53Z</time>
      </trkpt>
      <trkpt lat="44.4105" lon="2.43361">
        <ele>419</ele>
        <time>2016-02-24T13:41:53Z</time>
      </trkpt>
      <trkpt lat="44.41033" lon="2.43351">
        <ele>414</ele>
        <time>2016-02-24T13:43:53Z</time>
      </trkpt>
      <trkpt lat="44.41027" lon="2.43314">
        <ele>409</ele>
        <time>2016-02-24T13:45:53Z</time>
      </trkpt>
      <trkpt lat="44.41025" lon="2.4328">
        <ele>404</ele>
        <time>2016-02-24T13:47:53Z</time>
      </trkpt>
      <trkpt lat="44.41024" lon="2.43226">
        <ele>399</ele>
        <time>2016-02-24T13:49:53Z</time>
      </trkpt>
      <trkpt lat="44.4101" lon="2.43173">
        <ele>393</ele>
        <time>2016-02-24T13:51:53Z</time>
      </trkpt>
      <trkpt lat="44.40999" lon="2.43136">
        <ele>390</ele>
        <time>2016-02-24T13:53:53Z</time>
      </trkpt>
      <trkpt lat="44.41028" lon="2.43078">
        <ele>387</ele>
        <time>2016-02-24T13:55:53Z</time>
      </trkpt>
      <trkpt lat="44.41041" lon="2.43014">
        <ele>383</ele>
        <time>2016-02-24T13:57:53Z</time>
      </trkpt>
      <trkpt lat="44.41035" lon="2.42919">
        <ele>379</ele>
        <time>2016-02-24T13:59:53Z</time>
      </trkpt>
      <trkpt lat="44.41033" lon="2.42836">
        <ele>377</ele>
        <time>2016-02-24T14:01:53Z</time>
      </trkpt>
      <trkpt lat="44.41038" lon="2.42705">
        <ele>375</ele>
        <time>2016-02-24T14:03:53Z</time>
      </trkpt>
      <trkpt lat="44.41051" lon="2.42574">
        <ele>374</ele>
        <time>2016-02-24T14:05:53Z</time>
      </trkpt>
      <trkpt lat="44.41054" lon="2.42507">
        <ele>373</ele>
        <time>2016-02-24T14:07:53Z</time>
      </trkpt>
      <trkpt lat="44.41131" lon="2.42452">
        <ele>370</ele>
        <time>2016-02-24T14:09:53Z</time>
      </trkpt>
      <trkpt lat="44.41192" lon="2.42389">
        <ele>368</ele>
        <time>2016-02-24T14:11:53Z</time>
      </trkpt>
      <trkpt lat="44.4122" lon="2.42334">
        <ele>366</ele>
        <time>2016-02-24T14:13:53Z</time>
      </trkpt>
      <trkpt lat="44.41272" lon="2.42282">
        <ele>362</ele>
        <time>2016-02-24T14:15:53Z</time>
      </trkpt>
      <trkpt lat="44.4131" lon="2.42226">
        <ele>358</ele>
        <time>2016-02-24T14:17:53Z</time>
      </trkpt>
      <trkpt lat="44.41305" lon="2.42179">
        <ele>359</ele>
        <time>2016-02-24T14:19:53Z</time>
      </trkpt>
      <trkpt lat="44.41309" lon="2.42134">
        <ele>359</ele>
        <time>2016-02-24T14:21:53Z</time>
      </trkpt>
      <trkpt lat="44.41332" lon="2.4211">
        <ele>361</ele>
        <time>2016-02-24T14:23:53Z</time>
      </trkpt>
      <trkpt lat="44.41354" lon="2.42102">
        <ele>359</ele>
        <time>2016-02-24T14:25:53Z</time>
      </trkpt>
      <trkpt lat="44.41381" lon="2.42108">
        <ele>357</ele>
        <time>2016-02-24T14:27:53Z</time>
      </trkpt>
      <trkpt lat="44.41407" lon="2.42114">
        <ele>354</ele>
        <time>2016-02-24T14:29:53Z</time>
      </trkpt>
      <trkpt lat="44.41426" lon="2.42063">
        <ele>353</ele>
        <time>2016-02-24T14:31:53Z</time>
      </trkpt>
    </trkseg>
  </trk>
</gpx>